Franklin, MA (02038)

3:37 PM EST on December 20, 2014 (GMT -0500)
Franklin East | Change Station
CLOSE
Current Station
Personal Weather Station
Location: Franklin, MA
Elevation: 246 ft
Nearby Weather Stations
Active Advisory: Special Statement

Elev 246 ft 42.11 °N, 71.38 °W | Updated 8 seconds ago

Overcast
Overcast
32.4 °F
Feels Like 32 °F
N
0.0
Wind Variable Wind from NNE
Gusts 0.0 mph

Today
High -- | Low -- °F
--% Chance of Precip.
Yesterday
High -- | Low -- °F
Precip. -- in
7:10 AM 4:16 PM
Waning Crescent, 2% visible
Pressure 30.23 in
Visibility 10.0 miles
Clouds Scattered Clouds 1900 ft
Overcast 3200 ft
Windchill 32 °F
Dew Point 21 °F
Humidity 63%
Rainfall 0.00 in
Snow Depth Not available.
UV 0 out of 12
Pollen .10 out of 12
Air Quality Not available.
Flu Activity Not available.
METAR KSFZ 202015Z 01009KT 10SM SCT019 OVC032 01/M07 A3023 RMK AO1

More Conditions Fewer Conditions

Pressure 30.23 in
Visibility 10.0 miles
Clouds Scattered Clouds 1900 ft
Overcast 3200 ft
Windchill 32 °F
Dew Point 21 °F
Humidity 63%
Rainfall 0.00 in
Snow Depth Not available.
UV 0 out of 12
Pollen .10 out of 12
Air Quality Not available.
Flu Activity Not available.
METAR KSFZ 202015Z 01009KT 10SM SCT019 OVC032 01/M07 A3023 RMK AO1

More Conditions Fewer Conditions

10-Day Weather Forecast

Almanac

Astronomy

Dec. 20, 2014 Rise Set
Actual Time
Civil Twilight
Nautical Twilight
Astronomical Twilight
Moon
Length of Visible Light
Length of Day
Tomorrow will be .
, % of the Moon is Illuminated

Today's Extremes

State Highs State Lows

Community

WunderPhotos

Upload Photos

1,779,270 photos uploaded!

WunderBlogs® & News

Nearby

Air Quality

  Air Quality AQ Index Pollutant
Not available.

Snow Depth

Station Depth Elevation

Earthquake Activity

City Distance Mag. Time & Date
Minimum magnitude displayed is 2.5.

Coastal Water Temperatures

Place Temperature

Nearby Weather Stations